sensor_id;sensor_type;location;lat;lon;timestamp;P1;durP1;ratioP1;P2;durP2;ratioP2
18322;SDS011;9287;49.456;11.064;2023-09-12T00:00:19;14.32;;;12.93;;
18322;SDS011;9287;49.456;11.064;2023-09-12T00:02:50;14.70;;;13.20;;
18322;SDS011;9287;49.456;11.064;2023-09-12T00:05:18;17.75;;;13.55;;
18322;SDS011;9287;49.456;11.064;2023-09-12T00:07:47;15.45;;;13.23;;
18322;SDS011;9287;49.456;11.064;2023-09-12T00:10:16;17.25;;;13.15;;
18322;SDS011;9287;49.456;11.064;2023-09-12T00:12:45;15.35;;;13.70;;
18322;SDS011;9287;49.456;11.064;2023-09-12T00:15:16;17.67;;;14.70;;
18322;SDS011;9287;49.456;11.064;2023-09-12T00:17:46;16.65;;;13.68;;
18322;SDS011;9287;49.456;11.064;2023-09-12T00:20:17;16.73;;;14.55;;
18322;SDS011;9287;49.456;11.064;2023-09-12T00:22:45;16.42;;;13.90;;
18322;SDS011;9287;49.456;11.064;2023-09-12T00:25:13;15.60;;;14.00;;
18322;SDS011;9287;49.456;11.064;2023-09-12T00:27:43;15.07;;;13.15;;
18322;SDS011;9287;49.456;11.064;2023-09-12T00:30:13;18.75;;;14.45;;
18322;SDS011;9287;49.456;11.064;2023-09-12T00:32:42;16.23;;;14.18;;
18322;SDS011;9287;49.456;11.064;2023-09-12T00:35:10;15.57;;;12.90;;
18322;SDS011;9287;49.456;11.064;2023-09-12T00:37:39;16.98;;;12.80;;
18322;SDS011;9287;49.456;11.064;2023-09-12T00:40:07;17.90;;;12.63;;
18322;SDS011;9287;49.456;11.064;2023-09-12T00:42:35;14.30;;;12.65;;
18322;SDS011;9287;49.456;11.064;2023-09-12T00:45:03;15.55;;;13.02;;
18322;SDS011;9287;49.456;11.064;2023-09-12T00:47:33;15.65;;;12.90;;
18322;SDS011;9287;49.456;11.064;2023-09-12T00:50:04;16.85;;;12.77;;
18322;SDS011;9287;49.456;11.064;2023-09-12T00:52:34;14.00;;;12.60;;
18322;SDS011;9287;49.456;11.064;2023-09-12T00:55:03;13.18;;;11.85;;
18322;SDS011;9287;49.456;11.064;2023-09-12T00:57:32;14.30;;;12.35;;
18322;SDS011;9287;49.456;11.064;2023-09-12T01:00:02;16.92;;;13.18;;
18322;SDS011;9287;49.456;11.064;2023-09-12T01:02:38;13.25;;;11.88;;
18322;SDS011;9287;49.456;11.064;2023-09-12T01:05:07;14.15;;;12.57;;
18322;SDS011;9287;49.456;11.064;2023-09-12T01:07:35;14.73;;;12.32;;
18322;SDS011;9287;49.456;11.064;2023-09-12T01:10:05;13.30;;;11.90;;
18322;SDS011;9287;49.456;11.064;2023-09-12T01:12:34;13.45;;;11.65;;
18322;SDS011;9287;49.456;11.064;2023-09-12T01:15:03;14.73;;;12.35;;
18322;SDS011;9287;49.456;11.064;2023-09-12T01:17:36;12.45;;;11.25;;
18322;SDS011;9287;49.456;11.064;2023-09-12T01:20:06;13.63;;;11.75;;
18322;SDS011;9287;49.456;11.064;2023-09-12T01:22:46;16.17;;;12.65;;
18322;SDS011;9287;49.456;11.064;2023-09-12T01:28:30;12.60;;;11.30;;
18322;SDS011;9287;49.456;11.064;2023-09-12T01:31:01;13.98;;;12.48;;
18322;SDS011;9287;49.456;11.064;2023-09-12T01:33:30;14.02;;;11.98;;
18322;SDS011;9287;49.456;11.064;2023-09-12T01:35:59;15.38;;;13.20;;
18322;SDS011;9287;49.456;11.064;2023-09-12T01:38:27;13.20;;;11.95;;
18322;SDS011;9287;49.456;11.064;2023-09-12T01:40:56;13.23;;;12.02;;
18322;SDS011;9287;49.456;11.064;2023-09-12T01:43:24;15.15;;;12.48;;
18322;SDS011;9287;49.456;11.064;2023-09-12T01:45:55;13.95;;;12.50;;
18322;SDS011;9287;49.456;11.064;2023-09-12T01:48:28;15.52;;;13.18;;
18322;SDS011;9287;49.456;11.064;2023-09-12T01:51:01;14.02;;;12.63;;
18322;SDS011;9287;49.456;11.064;2023-09-12T01:53:29;16.33;;;13.07;;
18322;SDS011;9287;49.456;11.064;2023-09-12T01:55:59;16.92;;;12.82;;
18322;SDS011;9287;49.456;11.064;2023-09-12T01:58:27;15.95;;;12.98;;
18322;SDS011;9287;49.456;11.064;2023-09-12T02:00:57;14.15;;;12.90;;
18322;SDS011;9287;49.456;11.064;2023-09-12T02:03:25;13.75;;;12.32;;
18322;SDS011;9287;49.456;11.064;2023-09-12T02:05:53;14.35;;;12.95;;
18322;SDS011;9287;49.456;11.064;2023-09-12T02:08:21;15.52;;;12.57;;
18322;SDS011;9287;49.456;11.064;2023-09-12T02:10:49;15.80;;;13.85;;
18322;SDS011;9287;49.456;11.064;2023-09-12T02:13:17;14.10;;;12.65;;
18322;SDS011;9287;49.456;11.064;2023-09-12T02:15:45;17.63;;;13.55;;
18322;SDS011;9287;49.456;11.064;2023-09-12T02:18:17;14.90;;;13.32;;
18322;SDS011;9287;49.456;11.064;2023-09-12T02:20:46;16.15;;;14.48;;
18322;SDS011;9287;49.456;11.064;2023-09-12T02:23:15;16.90;;;15.13;;
18322;SDS011;9287;49.456;11.064;2023-09-12T02:25:45;14.25;;;12.95;;
18322;SDS011;9287;49.456;11.064;2023-09-12T02:28:36;16.33;;;14.60;;
18322;SDS011;9287;49.456;11.064;2023-09-12T02:31:09;15.68;;;14.05;;
18322;SDS011;9287;49.456;11.064;2023-09-12T02:33:39;19.15;;;15.38;;
18322;SDS011;9287;49.456;11.064;2023-09-12T02:36:08;17.02;;;15.27;;
18322;SDS011;9287;49.456;11.064;2023-09-12T02:38:35;17.40;;;15.57;;
18322;SDS011;9287;49.456;11.064;2023-09-12T02:41:04;15.35;;;13.77;;
18322;SDS011;9287;49.456;11.064;2023-09-12T02:43:31;15.88;;;14.38;;
18322;SDS011;9287;49.456;11.064;2023-09-12T02:46:02;16.92;;;15.23;;
18322;SDS011;9287;49.456;11.064;2023-09-12T02:48:30;14.40;;;13.02;;
18322;SDS011;9287;49.456;11.064;2023-09-12T02:51:00;17.20;;;15.13;;
18322;SDS011;9287;49.456;11.064;2023-09-12T02:53:28;15.60;;;14.18;;
18322;SDS011;9287;49.456;11.064;2023-09-12T02:55:56;15.80;;;14.20;;
18322;SDS011;9287;49.456;11.064;2023-09-12T02:58:23;15.73;;;14.13;;
18322;SDS011;9287;49.456;11.064;2023-09-12T03:00:51;16.90;;;15.18;;
18322;SDS011;9287;49.456;11.064;2023-09-12T03:03:21;15.75;;;14.15;;
18322;SDS011;9287;49.456;11.064;2023-09-12T03:05:56;16.27;;;14.57;;
18322;SDS011;9287;49.456;11.064;2023-09-12T03:08:26;17.80;;;16.00;;
18322;SDS011;9287;49.456;11.064;2023-09-12T03:10:54;16.00;;;14.40;;
18322;SDS011;9287;49.456;11.064;2023-09-12T03:13:23;17.10;;;15.20;;
18322;SDS011;9287;49.456;11.064;2023-09-12T03:15:51;16.80;;;15.07;;
18322;SDS011;9287;49.456;11.064;2023-09-12T03:18:27;17.48;;;15.13;;
18322;SDS011;9287;49.456;11.064;2023-09-12T03:20:55;19.67;;;15.48;;
18322;SDS011;9287;49.456;11.064;2023-09-12T03:23:23;17.83;;;15.02;;
18322;SDS011;9287;49.456;11.064;2023-09-12T03:25:52;17.40;;;15.65;;
18322;SDS011;9287;49.456;11.064;2023-09-12T03:28:20;18.88;;;16.67;;
18322;SDS011;9287;49.456;11.064;2023-09-12T03:30:50;18.60;;;16.60;;
18322;SDS011;9287;49.456;11.064;2023-09-12T03:33:19;21.17;;;15.65;;
18322;SDS011;9287;49.456;11.064;2023-09-12T03:35:49;17.15;;;15.35;;
18322;SDS011;9287;49.456;11.064;2023-09-12T03:38:17;17.67;;;15.90;;
18322;SDS011;9287;49.456;11.064;2023-09-12T03:40:45;20.13;;;16.08;;
18322;SDS011;9287;49.456;11.064;2023-09-12T03:43:14;18.23;;;15.77;;
18322;SDS011;9287;49.456;11.064;2023-09-12T03:45:42;16.95;;;15.25;;
18322;SDS011;9287;49.456;11.064;2023-09-12T03:48:10;17.40;;;14.90;;
18322;SDS011;9287;49.456;11.064;2023-09-12T03:50:40;19.33;;;15.73;;
18322;SDS011;9287;49.456;11.064;2023-09-12T03:53:08;15.82;;;14.32;;
18322;SDS011;9287;49.456;11.064;2023-09-12T03:55:36;19.15;;;15.27;;
18322;SDS011;9287;49.456;11.064;2023-09-12T03:58:03;16.80;;;14.52;;
18322;SDS011;9287;49.456;11.064;2023-09-12T04:00:33;19.20;;;14.80;;
18322;SDS011;9287;49.456;11.064;2023-09-12T04:03:01;15.50;;;13.70;;
18322;SDS011;9287;49.456;11.064;2023-09-12T04:05:29;15.48;;;13.98;;
18322;SDS011;9287;49.456;11.064;2023-09-12T04:07:57;15.48;;;13.95;;
18322;SDS011;9287;49.456;11.064;2023-09-12T04:10:25;15.77;;;13.82;;
18322;SDS011;9287;49.456;11.064;2023-09-12T04:12:55;15.48;;;13.80;;
18322;SDS011;9287;49.456;11.064;2023-09-12T04:15:23;14.05;;;12.57;;
18322;SDS011;9287;49.456;11.064;2023-09-12T04:17:52;17.27;;;13.70;;
18322;SDS011;9287;49.456;11.064;2023-09-12T04:20:20;15.75;;;13.98;;
18322;SDS011;9287;49.456;11.064;2023-09-12T04:22:48;15.57;;;14.00;;
18322;SDS011;9287;49.456;11.064;2023-09-12T04:25:16;18.65;;;13.98;;
18322;SDS011;9287;49.456;11.064;2023-09-12T04:27:48;15.35;;;13.75;;
18322;SDS011;9287;49.456;11.064;2023-09-12T04:30:16;20.60;;;13.25;;
18322;SDS011;9287;49.456;11.064;2023-09-12T04:32:43;17.15;;;13.43;;
18322;SDS011;9287;49.456;11.064;2023-09-12T04:35:13;17.10;;;13.05;;
18322;SDS011;9287;49.456;11.064;2023-09-12T04:37:40;15.60;;;13.00;;
18322;SDS011;9287;49.456;11.064;2023-09-12T04:40:09;18.90;;;13.75;;
18322;SDS011;9287;49.456;11.064;2023-09-12T04:42:37;14.38;;;12.77;;
18322;SDS011;9287;49.456;11.064;2023-09-12T04:45:06;13.98;;;12.63;;
18322;SDS011;9287;49.456;11.064;2023-09-12T04:47:34;18.40;;;13.48;;
18322;SDS011;9287;49.456;11.064;2023-09-12T04:50:04;15.48;;;13.13;;
18322;SDS011;9287;49.456;11.064;2023-09-12T04:52:34;15.85;;;12.75;;
18322;SDS011;9287;49.456;11.064;2023-09-12T04:55:03;15.88;;;12.63;;
18322;SDS011;9287;49.456;11.064;2023-09-12T04:57:32;17.55;;;13.75;;
18322;SDS011;9287;49.456;11.064;2023-09-12T05:00:00;14.75;;;12.45;;
18322;SDS011;9287;49.456;11.064;2023-09-12T05:02:28;14.68;;;13.05;;
18322;SDS011;9287;49.456;11.064;2023-09-12T05:04:55;13.55;;;12.13;;
18322;SDS011;9287;49.456;11.064;2023-09-12T05:07:24;14.75;;;12.95;;
18322;SDS011;9287;49.456;11.064;2023-09-12T05:09:53;14.10;;;12.65;;
18322;SDS011;9287;49.456;11.064;2023-09-12T05:12:22;17.10;;;12.98;;
18322;SDS011;9287;49.456;11.064;2023-09-12T05:14:51;16.60;;;12.50;;
18322;SDS011;9287;49.456;11.064;2023-09-12T05:17:19;14.07;;;12.60;;
18322;SDS011;9287;49.456;11.064;2023-09-12T05:19:48;14.75;;;12.02;;
18322;SDS011;9287;49.456;11.064;2023-09-12T05:22:19;14.98;;;12.98;;
18322;SDS011;9287;49.456;11.064;2023-09-12T05:24:48;13.82;;;12.38;;
18322;SDS011;9287;49.456;11.064;2023-09-12T05:27:18;18.33;;;12.73;;
18322;SDS011;9287;49.456;11.064;2023-09-12T05:29:48;16.33;;;12.35;;
18322;SDS011;9287;49.456;11.064;2023-09-12T05:32:17;15.02;;;12.90;;
18322;SDS011;9287;49.456;11.064;2023-09-12T05:34:46;15.00;;;13.15;;
18322;SDS011;9287;49.456;11.064;2023-09-12T05:37:22;14.13;;;12.43;;
18322;SDS011;9287;49.456;11.064;2023-09-12T05:39:54;17.52;;;12.52;;
18322;SDS011;9287;49.456;11.064;2023-09-12T05:42:26;14.70;;;12.95;;
18322;SDS011;9287;49.456;11.064;2023-09-12T05:45:03;14.75;;;12.52;;
18322;SDS011;9287;49.456;11.064;2023-09-12T05:47:35;18.05;;;12.48;;
18322;SDS011;9287;49.456;11.064;2023-09-12T05:50:05;14.75;;;11.90;;
18322;SDS011;9287;49.456;11.064;2023-09-12T05:52:45;15.80;;;11.40;;
18322;SDS011;9287;49.456;11.064;2023-09-12T05:55:14;13.05;;;11.45;;
18322;SDS011;9287;49.456;11.064;2023-09-12T05:57:44;16.98;;;13.68;;
18322;SDS011;9287;49.456;11.064;2023-09-12T06:00:20;14.73;;;12.68;;
18322;SDS011;9287;49.456;11.064;2023-09-12T06:02:48;17.08;;;13.50;;
18322;SDS011;9287;49.456;11.064;2023-09-12T06:05:19;17.90;;;14.00;;
18322;SDS011;9287;49.456;11.064;2023-09-12T06:07:47;17.83;;;13.43;;
18322;SDS011;9287;49.456;11.064;2023-09-12T06:10:15;16.58;;;13.27;;
18322;SDS011;9287;49.456;11.064;2023-09-12T06:12:45;14.57;;;13.02;;
18322;SDS011;9287;49.456;11.064;2023-09-12T06:15:16;18.27;;;14.07;;
18322;SDS011;9287;49.456;11.064;2023-09-12T06:17:46;15.43;;;12.77;;
18322;SDS011;9287;49.456;11.064;2023-09-12T06:20:14;19.02;;;14.00;;
18322;SDS011;9287;49.456;11.064;2023-09-12T06:22:42;15.60;;;13.95;;
18322;SDS011;9287;49.456;11.064;2023-09-12T06:25:10;17.08;;;13.07;;
18322;SDS011;9287;49.456;11.064;2023-09-12T06:27:38;18.20;;;13.73;;
18322;SDS011;9287;49.456;11.064;2023-09-12T06:30:08;15.40;;;12.35;;
18322;SDS011;9287;49.456;11.064;2023-09-12T06:32:36;15.30;;;13.30;;
18322;SDS011;9287;49.456;11.064;2023-09-12T06:35:05;17.17;;;14.00;;
18322;SDS011;9287;49.456;11.064;2023-09-12T06:37:34;17.00;;;13.00;;
18322;SDS011;9287;49.456;11.064;2023-09-12T06:40:02;19.25;;;13.55;;
18322;SDS011;9287;49.456;11.064;2023-09-12T06:42:31;18.80;;;13.20;;
18322;SDS011;9287;49.456;11.064;2023-09-12T06:44:58;15.90;;;12.95;;
18322;SDS011;9287;49.456;11.064;2023-09-12T06:47:28;18.17;;;14.13;;
18322;SDS011;9287;49.456;11.064;2023-09-12T06:49:55;16.17;;;12.95;;
18322;SDS011;9287;49.456;11.064;2023-09-12T06:52:23;15.00;;;11.93;;
18322;SDS011;9287;49.456;11.064;2023-09-12T06:54:51;17.55;;;11.50;;
18322;SDS011;9287;49.456;11.064;2023-09-12T06:57:19;14.13;;;11.25;;
18322;SDS011;9287;49.456;11.064;2023-09-12T06:59:47;14.27;;;10.43;;
18322;SDS011;9287;49.456;11.064;2023-09-12T07:02:15;17.58;;;11.43;;
18322;SDS011;9287;49.456;11.064;2023-09-12T07:04:46;15.73;;;10.70;;
18322;SDS011;9287;49.456;11.064;2023-09-12T07:07:14;19.52;;;10.05;;
18322;SDS011;9287;49.456;11.064;2023-09-12T07:09:41;15.60;;;9.98;;
18322;SDS011;9287;49.456;11.064;2023-09-12T07:12:09;14.07;;;9.95;;
18322;SDS011;9287;49.456;11.064;2023-09-12T07:14:37;13.25;;;9.73;;
18322;SDS011;9287;49.456;11.064;2023-09-12T07:17:06;15.77;;;10.48;;
18322;SDS011;9287;49.456;11.064;2023-09-12T07:19:35;14.18;;;9.93;;
18322;SDS011;9287;49.456;11.064;2023-09-12T07:22:05;13.35;;;10.18;;
18322;SDS011;9287;49.456;11.064;2023-09-12T07:24:32;15.50;;;10.85;;
18322;SDS011;9287;49.456;11.064;2023-09-12T07:27:00;17.52;;;10.63;;
18322;SDS011;9287;49.456;11.064;2023-09-12T07:29:28;15.23;;;10.27;;
18322;SDS011;9287;49.456;11.064;2023-09-12T07:31:56;17.80;;;10.40;;
18322;SDS011;9287;49.456;11.064;2023-09-12T07:34:26;10.80;;;9.70;;
18322;SDS011;9287;49.456;11.064;2023-09-12T07:36:54;13.60;;;9.57;;
18322;SDS011;9287;49.456;11.064;2023-09-12T07:39:23;10.32;;;9.32;;
18322;SDS011;9287;49.456;11.064;2023-09-12T07:41:51;10.32;;;9.30;;
18322;SDS011;9287;49.456;11.064;2023-09-12T07:44:19;11.73;;;9.98;;
18322;SDS011;9287;49.456;11.064;2023-09-12T07:46:47;11.30;;;9.27;;
18322;SDS011;9287;49.456;11.064;2023-09-12T07:49:15;10.65;;;9.55;;
18322;SDS011;9287;49.456;11.064;2023-09-12T07:51:42;11.70;;;10.52;;
18322;SDS011;9287;49.456;11.064;2023-09-12T07:54:10;10.57;;;9.23;;
18322;SDS011;9287;49.456;11.064;2023-09-12T07:56:39;16.48;;;10.63;;
18322;SDS011;9287;49.456;11.064;2023-09-12T07:59:07;10.95;;;9.85;;
18322;SDS011;9287;49.456;11.064;2023-09-12T08:01:36;11.00;;;9.60;;
18322;SDS011;9287;49.456;11.064;2023-09-12T08:04:04;12.35;;;9.82;;
18322;SDS011;9287;49.456;11.064;2023-09-12T08:06:32;17.05;;;10.70;;
18322;SDS011;9287;49.456;11.064;2023-09-12T08:09:17;12.68;;;10.40;;
18322;SDS011;9287;49.456;11.064;2023-09-12T08:11:46;10.50;;;9.20;;
18322;SDS011;9287;49.456;11.064;2023-09-12T08:14:13;9.93;;;8.50;;
18322;SDS011;9287;49.456;11.064;2023-09-12T08:16:41;11.15;;;7.65;;
18322;SDS011;9287;49.456;11.064;2023-09-12T08:19:09;8.32;;;7.55;;
18322;SDS011;9287;49.456;11.064;2023-09-12T08:21:41;12.73;;;8.32;;
18322;SDS011;9287;49.456;11.064;2023-09-12T08:24:09;9.25;;;8.35;;
18322;SDS011;9287;49.456;11.064;2023-09-12T08:26:37;9.73;;;8.05;;
18322;SDS011;9287;49.456;11.064;2023-09-12T08:29:06;10.82;;;8.45;;
18322;SDS011;9287;49.456;11.064;2023-09-12T08:31:34;12.60;;;8.10;;
18322;SDS011;9287;49.456;11.064;2023-09-12T08:34:01;13.80;;;8.90;;
18322;SDS011;9287;49.456;11.064;2023-09-12T08:36:29;15.27;;;9.00;;
18322;SDS011;9287;49.456;11.064;2023-09-12T08:38:57;11.73;;;8.10;;
18322;SDS011;9287;49.456;11.064;2023-09-12T08:41:27;10.27;;;8.73;;
18322;SDS011;9287;49.456;11.064;2023-09-12T08:43:54;14.55;;;9.05;;
18322;SDS011;9287;49.456;11.064;2023-09-12T08:46:25;10.23;;;7.72;;
18322;SDS011;9287;49.456;11.064;2023-09-12T08:48:53;14.57;;;7.85;;
18322;SDS011;9287;49.456;11.064;2023-09-12T08:51:23;9.48;;;7.68;;
18322;SDS011;9287;49.456;11.064;2023-09-12T08:53:51;11.50;;;8.48;;
18322;SDS011;9287;49.456;11.064;2023-09-12T08:56:19;10.82;;;8.05;;
18322;SDS011;9287;49.456;11.064;2023-09-12T08:58:47;9.43;;;6.75;;
18322;SDS011;9287;49.456;11.064;2023-09-12T09:01:16;11.55;;;7.35;;
18322;SDS011;9287;49.456;11.064;2023-09-12T09:03:47;9.20;;;6.30;;
18322;SDS011;9287;49.456;11.064;2023-09-12T09:06:16;10.20;;;6.88;;
18322;SDS011;9287;49.456;11.064;2023-09-12T09:08:45;8.10;;;7.30;;
18322;SDS011;9287;49.456;11.064;2023-09-12T09:11:14;11.00;;;6.75;;
18322;SDS011;9287;49.456;11.064;2023-09-12T09:13:44;9.20;;;6.93;;
18322;SDS011;9287;49.456;11.064;2023-09-12T09:16:13;9.75;;;5.72;;
18322;SDS011;9287;49.456;11.064;2023-09-12T09:18:56;6.78;;;6.10;;
18322;SDS011;9287;49.456;11.064;2023-09-12T09:21:26;8.32;;;6.68;;
18322;SDS011;9287;49.456;11.064;2023-09-12T09:23:58;7.93;;;5.93;;
18322;SDS011;9287;49.456;11.064;2023-09-12T09:26:41;7.10;;;6.32;;
18322;SDS011;9287;49.456;11.064;2023-09-12T09:29:10;6.80;;;5.90;;
18322;SDS011;9287;49.456;11.064;2023-09-12T09:31:40;6.32;;;5.72;;
18322;SDS011;9287;49.456;11.064;2023-09-12T09:34:13;6.35;;;5.78;;
18322;SDS011;9287;49.456;11.064;2023-09-12T09:36:43;6.88;;;5.85;;
18322;SDS011;9287;49.456;11.064;2023-09-12T09:39:12;7.72;;;6.40;;
18322;SDS011;9287;49.456;11.064;2023-09-12T09:41:42;8.88;;;6.38;;
18322;SDS011;9287;49.456;11.064;2023-09-12T09:44:10;10.65;;;6.05;;
18322;SDS011;9287;49.456;11.064;2023-09-12T09:46:37;8.18;;;6.30;;
18322;SDS011;9287;49.456;11.064;2023-09-12T09:49:05;11.18;;;6.68;;
18322;SDS011;9287;49.456;11.064;2023-09-12T09:51:41;7.43;;;5.85;;
18322;SDS011;9287;49.456;11.064;2023-09-12T09:54:09;6.38;;;5.72;;
18322;SDS011;9287;49.456;11.064;2023-09-12T09:56:44;9.20;;;5.95;;
18322;SDS011;9287;49.456;11.064;2023-09-12T09:59:13;6.97;;;6.18;;
18322;SDS011;9287;49.456;11.064;2023-09-12T10:01:43;11.02;;;6.32;;
18322;SDS011;9287;49.456;11.064;2023-09-12T10:04:11;9.50;;;6.65;;
18322;SDS011;9287;49.456;11.064;2023-09-12T10:06:39;9.05;;;6.95;;
18322;SDS011;9287;49.456;11.064;2023-09-12T10:09:12;10.07;;;7.55;;
18322;SDS011;9287;49.456;11.064;2023-09-12T10:11:42;11.52;;;7.75;;
18322;SDS011;9287;49.456;11.064;2023-09-12T10:14:11;7.05;;;6.45;;
18322;SDS011;9287;49.456;11.064;2023-09-12T10:16:43;14.45;;;7.03;;
18322;SDS011;9287;49.456;11.064;2023-09-12T10:19:13;8.95;;;7.63;;
18322;SDS011;9287;49.456;11.064;2023-09-12T10:21:48;9.32;;;8.18;;
18322;SDS011;9287;49.456;11.064;2023-09-12T10:24:17;9.77;;;7.03;;
18322;SDS011;9287;49.456;11.064;2023-09-12T10:26:48;9.82;;;7.43;;
18322;SDS011;9287;49.456;11.064;2023-09-12T10:29:17;8.50;;;7.70;;
18322;SDS011;9287;49.456;11.064;2023-09-12T10:31:46;9.63;;;7.97;;
18322;SDS011;9287;49.456;11.064;2023-09-12T10:34:15;9.70;;;7.93;;
18322;SDS011;9287;49.456;11.064;2023-09-12T10:36:44;8.75;;;7.78;;
18322;SDS011;9287;49.456;11.064;2023-09-12T10:39:14;15.40;;;8.88;;
18322;SDS011;9287;49.456;11.064;2023-09-12T10:41:42;12.52;;;8.15;;
18322;SDS011;9287;49.456;11.064;2023-09-12T10:44:10;8.30;;;7.50;;
18322;SDS011;9287;49.456;11.064;2023-09-12T10:46:42;9.15;;;8.20;;
18322;SDS011;9287;49.456;11.064;2023-09-12T10:49:13;11.60;;;8.23;;
18322;SDS011;9287;49.456;11.064;2023-09-12T10:51:42;8.23;;;7.35;;
18322;SDS011;9287;49.456;11.064;2023-09-12T10:54:14;7.90;;;7.15;;
18322;SDS011;9287;49.456;11.064;2023-09-12T10:56:43;8.00;;;7.18;;
18322;SDS011;9287;49.456;11.064;2023-09-12T10:59:18;7.78;;;7.07;;
18322;SDS011;9287;49.456;11.064;2023-09-12T11:01:52;7.32;;;6.60;;
18322;SDS011;9287;49.456;11.064;2023-09-12T11:04:32;8.07;;;6.35;;
18322;SDS011;9287;49.456;11.064;2023-09-12T11:07:01;9.55;;;7.00;;
18322;SDS011;9287;49.456;11.064;2023-09-12T11:10:20;9.15;;;6.65;;
18322;SDS011;9287;49.456;11.064;2023-09-12T11:12:51;7.82;;;6.38;;
18322;SDS011;9287;49.456;11.064;2023-09-12T11:15:21;7.47;;;6.95;;
18322;SDS011;9287;49.456;11.064;2023-09-12T11:17:59;7.45;;;6.75;;
18322;SDS011;9287;49.456;11.064;2023-09-12T11:20:49;7.47;;;6.78;;
18322;SDS011;9287;49.456;11.064;2023-09-12T11:23:22;8.73;;;7.28;;
18322;SDS011;9287;49.456;11.064;2023-09-12T11:26:04;8.43;;;7.25;;
18322;SDS011;9287;49.456;11.064;2023-09-12T11:28:36;7.38;;;6.68;;
18322;SDS011;9287;49.456;11.064;2023-09-12T11:31:05;8.27;;;7.47;;
18322;SDS011;9287;49.456;11.064;2023-09-12T11:33:33;8.95;;;7.28;;
18322;SDS011;9287;49.456;11.064;2023-09-12T11:36:02;7.32;;;6.60;;
18322;SDS011;9287;49.456;11.064;2023-09-12T11:38:38;7.20;;;6.50;;
18322;SDS011;9287;49.456;11.064;2023-09-12T11:41:06;7.78;;;6.40;;
18322;SDS011;9287;49.456;11.064;2023-09-12T11:43:34;8.23;;;6.22;;
18322;SDS011;9287;49.456;11.064;2023-09-12T11:46:06;6.82;;;5.93;;
18322;SDS011;9287;49.456;11.064;2023-09-12T11:48:36;7.57;;;6.65;;
18322;SDS011;9287;49.456;11.064;2023-09-12T11:51:06;6.22;;;5.63;;
18322;SDS011;9287;49.456;11.064;2023-09-12T11:53:34;11.30;;;6.63;;
18322;SDS011;9287;49.456;11.064;2023-09-12T11:56:03;7.53;;;5.95;;
18322;SDS011;9287;49.456;11.064;2023-09-12T11:58:32;8.43;;;6.40;;
18322;SDS011;9287;49.456;11.064;2023-09-12T12:01:00;8.13;;;6.28;;
18322;SDS011;9287;49.456;11.064;2023-09-12T12:03:29;7.00;;;6.43;;
18322;SDS011;9287;49.456;11.064;2023-09-12T12:05:57;11.18;;;5.85;;
18322;SDS011;9287;49.456;11.064;2023-09-12T12:08:25;6.30;;;5.65;;
18322;SDS011;9287;49.456;11.064;2023-09-12T12:10:58;6.03;;;5.47;;
18322;SDS011;9287;49.456;11.064;2023-09-12T12:13:28;6.40;;;5.80;;
18322;SDS011;9287;49.456;11.064;2023-09-12T12:15:56;6.55;;;5.97;;
18322;SDS011;9287;49.456;11.064;2023-09-12T12:18:25;7.18;;;5.88;;
18322;SDS011;9287;49.456;11.064;2023-09-12T12:20:54;7.47;;;5.55;;
18322;SDS011;9287;49.456;11.064;2023-09-12T12:23:21;6.35;;;5.78;;
18322;SDS011;9287;49.456;11.064;2023-09-12T12:25:49;5.70;;;5.20;;
18322;SDS011;9287;49.456;11.064;2023-09-12T12:28:17;6.85;;;5.75;;
18322;SDS011;9287;49.456;11.064;2023-09-12T12:30:49;6.13;;;5.55;;
18322;SDS011;9287;49.456;11.064;2023-09-12T12:33:21;5.72;;;5.25;;
18322;SDS011;9287;49.456;11.064;2023-09-12T12:36:09;6.47;;;5.82;;
18322;SDS011;9287;49.456;11.064;2023-09-12T12:38:37;5.22;;;4.72;;
18322;SDS011;9287;49.456;11.064;2023-09-12T12:41:21;5.50;;;4.72;;
18322;SDS011;9287;49.456;11.064;2023-09-12T12:43:52;6.88;;;5.18;;
18322;SDS011;9287;49.456;11.064;2023-09-12T12:46:22;5.97;;;5.38;;
18322;SDS011;9287;49.456;11.064;2023-09-12T12:48:49;5.55;;;4.95;;
18322;SDS011;9287;49.456;11.064;2023-09-12T12:51:19;7.00;;;5.60;;
18322;SDS011;9287;49.456;11.064;2023-09-12T12:53:49;6.15;;;5.30;;
18322;SDS011;9287;49.456;11.064;2023-09-12T12:56:20;7.25;;;5.53;;
18322;SDS011;9287;49.456;11.064;2023-09-12T12:58:50;6.15;;;5.32;;
18322;SDS011;9287;49.456;11.064;2023-09-12T13:01:19;6.70;;;5.82;;
18322;SDS011;9287;49.456;11.064;2023-09-12T13:03:49;6.45;;;5.38;;
18322;SDS011;9287;49.456;11.064;2023-09-12T13:06:18;6.35;;;5.75;;
18322;SDS011;9287;49.456;11.064;2023-09-12T13:08:46;9.07;;;5.63;;
18322;SDS011;9287;49.456;11.064;2023-09-12T13:11:15;7.28;;;6.57;;
18322;SDS011;9287;49.456;11.064;2023-09-12T13:13:44;6.28;;;4.97;;
18322;SDS011;9287;49.456;11.064;2023-09-12T13:16:14;5.22;;;4.82;;
18322;SDS011;9287;49.456;11.064;2023-09-12T13:18:44;7.43;;;5.47;;
18322;SDS011;9287;49.456;11.064;2023-09-12T13:21:12;5.28;;;4.78;;
18322;SDS011;9287;49.456;11.064;2023-09-12T13:23:39;5.85;;;5.30;;
18322;SDS011;9287;49.456;11.064;2023-09-12T13:26:08;5.88;;;4.80;;
18322;SDS011;9287;49.456;11.064;2023-09-12T13:28:37;6.30;;;5.65;;
18322;SDS011;9287;49.456;11.064;2023-09-12T13:31:04;6.13;;;5.50;;
18322;SDS011;9287;49.456;11.064;2023-09-12T13:33:33;8.70;;;5.55;;
18322;SDS011;9287;49.456;11.064;2023-09-12T13:36:02;8.70;;;5.05;;
18322;SDS011;9287;49.456;11.064;2023-09-12T13:38:30;5.80;;;5.22;;
18322;SDS011;9287;49.456;11.064;2023-09-12T13:40:58;5.70;;;5.20;;
18322;SDS011;9287;49.456;11.064;2023-09-12T13:43:26;5.75;;;4.90;;
18322;SDS011;9287;49.456;11.064;2023-09-12T13:45:54;7.43;;;5.53;;
18322;SDS011;9287;49.456;11.064;2023-09-12T13:48:22;6.43;;;5.53;;
18322;SDS011;9287;49.456;11.064;2023-09-12T13:50:52;7.55;;;5.50;;
18322;SDS011;9287;49.456;11.064;2023-09-12T13:53:24;6.65;;;5.50;;
18322;SDS011;9287;49.456;11.064;2023-09-12T13:55:52;6.25;;;5.72;;
18322;SDS011;9287;49.456;11.064;2023-09-12T13:58:20;9.75;;;5.80;;
18322;SDS011;9287;49.456;11.064;2023-09-12T14:00:49;5.60;;;5.18;;
18322;SDS011;9287;49.456;11.064;2023-09-12T14:03:17;8.45;;;5.18;;
18322;SDS011;9287;49.456;11.064;2023-09-12T14:05:46;4.95;;;4.43;;
18322;SDS011;9287;49.456;11.064;2023-09-12T14:08:14;6.35;;;5.38;;
18322;SDS011;9287;49.456;11.064;2023-09-12T14:10:44;5.63;;;5.10;;
18322;SDS011;9287;49.456;11.064;2023-09-12T14:13:12;6.10;;;5.50;;
18322;SDS011;9287;49.456;11.064;2023-09-12T14:15:47;5.63;;;5.13;;
18322;SDS011;9287;49.456;11.064;2023-09-12T14:18:17;5.68;;;5.15;;
18322;SDS011;9287;49.456;11.064;2023-09-12T14:20:48;7.07;;;5.38;;
18322;SDS011;9287;49.456;11.064;2023-09-12T14:23:19;5.32;;;4.85;;
18322;SDS011;9287;49.456;11.064;2023-09-12T14:25:49;9.80;;;5.40;;
18322;SDS011;9287;49.456;11.064;2023-09-12T14:28:19;7.22;;;5.68;;
18322;SDS011;9287;49.456;11.064;2023-09-12T14:30:47;7.38;;;5.00;;
18322;SDS011;9287;49.456;11.064;2023-09-12T14:33:16;7.78;;;4.90;;
18322;SDS011;9287;49.456;11.064;2023-09-12T14:35:44;6.10;;;5.10;;
18322;SDS011;9287;49.456;11.064;2023-09-12T14:38:13;5.95;;;5.38;;
18322;SDS011;9287;49.456;11.064;2023-09-12T14:40:40;6.07;;;5.47;;
18322;SDS011;9287;49.456;11.064;2023-09-12T14:43:12;5.97;;;5.32;;
18322;SDS011;9287;49.456;11.064;2023-09-12T14:45:40;6.68;;;4.50;;
18322;SDS011;9287;49.456;11.064;2023-09-12T14:48:08;7.47;;;5.25;;
18322;SDS011;9287;49.456;11.064;2023-09-12T14:50:36;5.55;;;5.15;;